createdAt,value
2018-09-17T00:01:28.419Z,95536.01
2018-09-17T00:04:33.126Z,95533.67
2018-09-17T00:07:37.705Z,95533.83
2018-09-17T00:10:42.671Z,95525.48
2018-09-17T00:13:47.519Z,95527.04
2018-09-17T00:16:51.935Z,95524.86
2018-09-17T00:19:56.300Z,95523.14
2018-09-17T00:23:00.848Z,95524.98
2018-09-17T00:26:05.522Z,95518.97
2018-09-17T00:29:09.854Z,95519.19
2018-09-17T00:32:14.212Z,95517.51
2018-09-17T00:35:18.549Z,95516.95
2018-09-17T00:38:22.910Z,95522.09
2018-09-17T00:41:27.230Z,95522.66
2018-09-17T00:44:32.137Z,95522.71
2018-09-17T00:47:36.492Z,95521.38
2018-09-17T00:50:42.121Z,95523.34
2018-09-17T00:53:47.684Z,95522.41
2018-09-17T00:56:52.668Z,95519.53
2018-09-17T00:59:57.056Z,95507.67
2018-09-17T01:03:02.054Z,95510.66
2018-09-17T01:06:06.551Z,95511.22
2018-09-17T01:09:14.962Z,95510.16
2018-09-17T01:12:19.292Z,95517.98
2018-09-17T01:15:23.919Z,95517.89
2018-09-17T01:18:28.290Z,95516.45
2018-09-17T01:21:32.665Z,95517.20
2018-09-17T01:24:37.093Z,95511.41
2018-09-17T01:27:41.471Z,95510.28
2018-09-17T01:30:45.795Z,95517.35
2018-09-17T01:33:50.220Z,95523.05
2018-09-17T01:36:54.929Z,95519.91
2018-09-17T01:39:59.685Z,95518.82
2018-09-17T01:43:04.615Z,95516.23
2018-09-17T01:46:08.988Z,95508.26
2018-09-17T01:49:13.524Z,95514.70
2018-09-17T01:52:17.807Z,95509.06
2018-09-17T01:55:22.308Z,95514.95
2018-09-17T01:58:26.672Z,95516.94
2018-09-17T02:01:31.005Z,95514.66
2018-09-17T02:04:35.329Z,95513.66
2018-09-17T02:07:39.771Z,95509.11
2018-09-17T02:10:44.071Z,95502.08
2018-09-17T02:13:48.384Z,95499.33
2018-09-17T02:16:52.726Z,95496.12
2018-09-17T02:19:57.015Z,95499.06
2018-09-17T02:23:01.342Z,95505.80
2018-09-17T02:26:05.824Z,95499.74
2018-09-17T02:29:10.118Z,95502.09
2018-09-17T02:32:14.508Z,95503.09
2018-09-17T02:35:18.808Z,95517.36
2018-09-17T02:38:23.109Z,95515.23
2018-09-17T02:41:27.452Z,95522.52
2018-09-17T02:44:31.774Z,95518.14
2018-09-17T02:47:36.118Z,95517.36
2018-09-17T02:50:40.444Z,95522.81
2018-09-17T02:53:44.866Z,95524.68
2018-09-17T02:56:49.081Z,95524.75
2018-09-17T02:59:53.376Z,95524.60
2018-09-17T03:02:57.689Z,95526.79
2018-09-17T03:06:02.006Z,95528.97
2018-09-17T03:09:09.170Z,95532.98
2018-09-17T03:12:13.752Z,95528.60
2018-09-17T03:15:35.639Z,95534.45
2018-09-17T03:18:53.363Z,95538.14
2018-09-17T03:21:57.764Z,95540.86
2018-09-17T03:25:02.081Z,95538.07
2018-09-17T03:28:06.600Z,95536.65
2018-09-17T03:31:11.054Z,95534.31
2018-09-17T03:34:15.374Z,95536.83
2018-09-17T03:37:20.758Z,95542.17
2018-09-17T03:40:25.200Z,95539.91
2018-09-17T03:43:29.691Z,95546.20
2018-09-17T03:46:34.032Z,95547.22
2018-09-17T03:49:38.348Z,95556.67
2018-09-17T03:52:42.946Z,95556.14
2018-09-17T03:55:47.370Z,95558.69
2018-09-17T03:58:51.760Z,95555.00
2018-09-17T04:01:59.128Z,95555.34
2018-09-17T04:05:03.437Z,95560.23
2018-09-17T04:08:07.978Z,95562.48
2018-09-17T04:11:12.326Z,95563.80
2018-09-17T04:14:16.689Z,95566.92
2018-09-17T04:17:21.561Z,95565.57
2018-09-17T04:20:26.460Z,95563.14
2018-09-17T04:23:34.224Z,95566.35
2018-09-17T04:26:41.177Z,95566.48
2018-09-17T04:29:45.500Z,95557.02
2018-09-17T04:32:50.206Z,95555.69
2018-09-17T04:35:55.108Z,95563.59
2018-09-17T04:38:59.418Z,95569.03
2018-09-17T04:42:04.220Z,95568.48
2018-09-17T04:45:08.601Z,95568.80
2018-09-17T04:48:13.919Z,95569.26
2018-09-17T04:51:18.460Z,95566.49
2018-09-17T04:54:24.171Z,95571.60
2018-09-17T04:57:29.115Z,95580.03
2018-09-17T05:00:35.026Z,95580.15
2018-09-17T05:03:39.715Z,95586.38
2018-09-17T05:06:44.387Z,95590.39
2018-09-17T05:09:51.196Z,95590.70
2018-09-17T05:12:56.607Z,95592.50
2018-09-17T05:16:01.073Z,95594.16
2018-09-17T05:19:07.000Z,95597.70
2018-09-17T05:22:12.217Z,95603.95
2018-09-17T05:25:16.690Z,95605.98
2018-09-17T05:28:21.256Z,95604.97
2018-09-17T05:31:25.542Z,95613.76
2018-09-17T05:34:29.837Z,95615.31
2018-09-17T05:37:34.175Z,95614.44
2018-09-17T05:40:38.645Z,95619.09
2018-09-17T05:43:43.088Z,95625.11
2018-09-17T05:46:47.409Z,95624.69
2018-09-17T05:49:51.805Z,95627.46
2018-09-17T05:52:56.167Z,95626.66
2018-09-17T05:56:00.690Z,95624.47
2018-09-17T05:59:06.202Z,95624.28
2018-09-17T06:02:11.331Z,95628.20
2018-09-17T06:05:15.706Z,95629.40
2018-09-17T06:08:20.233Z,95629.39
2018-09-17T06:11:24.659Z,95629.59
2018-09-17T06:14:29.185Z,95626.67
2018-09-17T06:17:33.666Z,95621.42
2018-09-17T06:20:37.904Z,95621.55
2018-09-17T06:23:42.257Z,95622.55
2018-09-17T06:26:47.442Z,95632.84
2018-09-17T06:29:51.831Z,95623.70
2018-09-17T06:32:56.246Z,95630.21
2018-09-17T06:36:00.556Z,95637.67
2018-09-17T06:39:06.704Z,95633.69
2018-09-17T06:42:11.024Z,95635.75
2018-09-17T06:45:15.380Z,95633.86
2018-09-17T06:48:19.906Z,95636.13
2018-09-17T06:51:24.341Z,95626.01
2018-09-17T06:54:28.658Z,95636.61
2018-09-17T06:57:33.066Z,95632.45
2018-09-17T07:00:37.382Z,95628.94
2018-09-17T07:03:41.832Z,95632.05
2018-09-17T07:06:46.933Z,95629.97
2018-09-17T07:09:51.447Z,95633.41
2018-09-17T07:12:56.537Z,95636.25
2018-09-17T07:16:31.940Z,95640.64
2018-09-17T07:19:36.284Z,95629.36
2018-09-17T07:22:40.750Z,95638.19
2018-09-17T07:25:45.049Z,95633.61
2018-09-17T07:28:49.356Z,95634.46
2018-09-17T07:31:53.660Z,95631.64
2018-09-17T07:34:58.098Z,95634.39
2018-09-17T07:38:02.449Z,95626.20
2018-09-17T07:41:07.662Z,95626.37
2018-09-17T07:44:12.216Z,95626.42
2018-09-17T07:47:16.728Z,95622.22
2018-09-17T07:50:21.009Z,95629.72
2018-09-17T07:53:25.405Z,95621.27
2018-09-17T07:56:30.162Z,95620.70
2018-09-17T07:59:35.614Z,95612.94
2018-09-17T08:02:40.003Z,95615.37
2018-09-17T08:05:44.507Z,95607.14
2018-09-17T08:08:48.919Z,95604.19
2018-09-17T08:11:53.245Z,95597.69
2018-09-17T08:14:58.076Z,95588.97
2018-09-17T08:18:02.690Z,95586.81
2018-09-17T08:21:07.488Z,95588.37
2018-09-17T08:24:11.965Z,95593.21
2018-09-17T08:27:16.480Z,95594.76
2018-09-17T08:30:20.938Z,95597.86
2018-09-17T08:33:25.271Z,95590.09
2018-09-17T08:36:31.153Z,95595.87
2018-09-17T08:39:35.440Z,95596.73
2018-09-17T08:42:39.977Z,95600.96
2018-09-17T08:45:46.286Z,95597.84
2018-09-17T08:48:50.948Z,95603.61
2018-09-17T08:51:55.251Z,95604.69
2018-09-17T08:55:04.722Z,95596.73
2018-09-17T08:58:14.449Z,95594.99
2018-09-17T09:01:24.092Z,95597.48
2018-09-17T09:05:31.239Z,95593.45
2018-09-17T09:08:36.815Z,95588.15
2018-09-17T09:11:46.488Z,95590.41
2018-09-17T09:14:55.684Z,95590.77
2018-09-17T09:18:00.187Z,95578.35
2018-09-17T09:21:04.557Z,95582.80
2018-09-17T09:24:08.940Z,95575.15
2018-09-17T09:27:13.232Z,95575.88
2018-09-17T09:30:17.540Z,95571.38
2018-09-17T09:33:22.128Z,95568.86
2018-09-17T09:36:26.410Z,95569.92
2018-09-17T09:39:31.037Z,95561.89
2018-09-17T09:42:35.328Z,95563.48
2018-09-17T09:45:39.704Z,95554.72
2018-09-17T09:48:44.098Z,95559.03
2018-09-17T09:51:49.428Z,95557.94
2018-09-17T09:54:54.144Z,95555.04
2018-09-17T09:57:58.460Z,95551.61
2018-09-17T10:01:08.301Z,95550.97
2018-09-17T10:04:17.845Z,95544.11
2018-09-17T10:07:22.372Z,95538.03
2018-09-17T10:10:32.201Z,95540.83
2018-09-17T10:13:41.733Z,95539.93
2018-09-17T10:16:51.205Z,95534.17
2018-09-17T10:19:55.747Z,95533.45
2018-09-17T10:23:00.894Z,95527.71
2018-09-17T10:26:05.216Z,95527.77
2018-09-17T10:29:09.513Z,95520.39
2018-09-17T10:32:14.318Z,95515.44
2018-09-17T10:35:18.682Z,95518.48
2018-09-17T10:38:23.098Z,95514.79
2018-09-17T10:41:27.396Z,95513.20
2018-09-17T10:44:32.345Z,95507.64
2018-09-17T10:47:36.694Z,95505.50
2018-09-17T10:50:41.012Z,95500.28
2018-09-17T10:53:45.933Z,95499.05
2018-09-17T10:56:51.281Z,95495.00
2018-09-17T10:59:57.357Z,95502.41
2018-09-17T11:03:01.700Z,95494.70
2018-09-17T11:06:06.740Z,95484.20
2018-09-17T11:09:12.643Z,95482.63
2018-09-17T11:12:17.184Z,95481.79
2018-09-17T11:15:21.972Z,95469.97
2018-09-17T11:18:26.700Z,95471.33
2018-09-17T11:25:10.037Z,95460.03
2018-09-17T11:28:14.384Z,95461.69
2018-09-17T11:31:19.075Z,95455.96
2018-09-17T11:34:23.381Z,95450.16
2018-09-17T11:37:27.731Z,95455.31
2018-09-17T11:40:32.069Z,95443.45
2018-09-17T11:43:38.144Z,95445.25
2018-09-17T11:46:42.687Z,95446.60
2018-09-17T11:49:47.186Z,95440.59
2018-09-17T11:52:52.236Z,95437.74
2018-09-17T11:55:56.635Z,95440.66
2018-09-17T11:59:01.082Z,95435.80
2018-09-17T12:02:09.548Z,95435.50
2018-09-17T12:05:17.915Z,95432.41
2018-09-17T12:08:22.429Z,95427.80
2018-09-17T12:11:26.785Z,95427.63
2018-09-17T12:14:31.268Z,95421.12
2018-09-17T12:17:35.941Z,95418.66
2018-09-17T12:20:40.467Z,95418.55
2018-09-17T12:23:44.823Z,95416.64
2018-09-17T12:26:49.176Z,95412.20
2018-09-17T12:29:53.576Z,95408.52
2018-09-17T12:32:57.887Z,95406.77
2018-09-17T12:36:02.261Z,95412.90
2018-09-17T12:39:09.592Z,95411.30
2018-09-17T12:42:13.890Z,95414.02
2018-09-17T12:45:18.196Z,95413.28
2018-09-17T12:48:22.511Z,95413.34
2018-09-17T12:51:27.090Z,95411.25
2018-09-17T12:54:31.672Z,95407.02
2018-09-17T12:57:36.071Z,95409.38
2018-09-17T13:00:40.371Z,95401.83
2018-09-17T13:03:44.718Z,95396.75
2018-09-17T13:06:49.069Z,95395.88
2018-09-17T13:09:53.456Z,95395.33
2018-09-17T13:12:57.806Z,95388.09
2018-09-17T13:16:02.104Z,95378.78
2018-09-17T13:19:07.904Z,95379.75
2018-09-17T13:22:12.239Z,95380.14
2018-09-17T13:25:16.592Z,95382.39
2018-09-17T13:28:21.045Z,95382.91
2018-09-17T13:31:25.384Z,95372.89
2018-09-17T13:34:29.877Z,95376.78
2018-09-17T13:37:34.196Z,95373.44
2018-09-17T13:40:38.528Z,95375.61
2018-09-17T13:43:44.204Z,95380.82
2018-09-17T13:46:48.759Z,95372.52
2018-09-17T13:49:53.753Z,95367.89
2018-09-17T13:52:58.468Z,95374.28
2018-09-17T13:56:03.141Z,95371.12
2018-09-17T13:59:07.568Z,95366.23
2018-09-17T14:02:12.048Z,95364.03
2018-09-17T14:05:16.392Z,95359.37
2018-09-17T14:08:20.700Z,95359.01
2018-09-17T14:11:25.121Z,95355.52
2018-09-17T14:14:29.475Z,95355.70
2018-09-17T14:17:33.867Z,95354.13
2018-09-17T14:20:38.284Z,95353.09
2018-09-17T14:23:42.819Z,95354.34
2018-09-17T14:26:47.152Z,95346.23
2018-09-17T14:29:51.455Z,95347.76
2018-09-17T14:33:01.172Z,95349.23
2018-09-17T14:36:05.708Z,95345.27
2018-09-17T14:39:10.453Z,95339.52
2018-09-17T14:42:14.779Z,95339.33
2018-09-17T14:45:19.233Z,95329.94
2018-09-17T14:48:23.660Z,95333.05
2018-09-17T14:51:28.140Z,95326.88
2018-09-17T14:54:34.003Z,95328.83
2018-09-17T14:57:38.481Z,95330.52
2018-09-17T15:00:43.752Z,95324.90
2018-09-17T15:03:48.479Z,95318.11
2018-09-17T15:06:53.476Z,95316.13
2018-09-17T15:09:58.250Z,95308.38
2018-09-17T15:13:02.659Z,95307.61
2018-09-17T15:16:07.202Z,95310.00
2018-09-17T15:19:11.620Z,95301.62
2018-09-17T15:22:16.203Z,95296.67
2018-09-17T15:25:20.744Z,95296.27
2018-09-17T15:28:25.326Z,95301.34
2018-09-17T15:31:30.372Z,95295.17
2018-09-17T15:34:34.842Z,95296.45
2018-09-17T15:37:39.389Z,95294.28
2018-09-17T15:40:43.934Z,95284.30
2018-09-17T15:43:48.327Z,95290.22
2018-09-17T15:46:52.921Z,95288.30
2018-09-17T15:49:57.740Z,95285.20
2018-09-17T15:53:02.299Z,95287.73
2018-09-17T15:56:06.751Z,95282.25
2018-09-17T15:59:11.789Z,95278.58
2018-09-17T16:02:16.417Z,95280.86
2018-09-17T16:05:20.933Z,95279.03
2018-09-17T16:08:25.431Z,95280.26
2018-09-17T16:11:29.840Z,95284.63
2018-09-17T16:14:34.199Z,95290.59
2018-09-17T16:17:38.716Z,95284.67
2018-09-17T16:20:43.648Z,95276.42
2018-09-17T16:23:48.196Z,95280.93
2018-09-17T16:26:52.601Z,95279.17
2018-09-17T16:29:57.000Z,95279.12
2018-09-17T16:33:01.325Z,95278.22
2018-09-17T16:36:05.687Z,95274.87
2018-09-17T16:39:10.811Z,95274.66
2018-09-17T16:42:15.256Z,95278.73
2018-09-17T16:45:19.850Z,95283.40
2018-09-17T16:48:24.368Z,95288.91
2018-09-17T16:51:29.008Z,95296.16
2018-09-17T16:54:33.507Z,95292.17
2018-09-17T16:57:37.851Z,95288.39
2018-09-17T17:00:43.502Z,95292.70
2018-09-17T17:03:47.796Z,95287.31
2018-09-17T17:06:52.244Z,95285.07
2018-09-17T17:09:56.611Z,95285.08
2018-09-17T17:13:01.166Z,95281.45
2018-09-17T17:16:05.698Z,95276.64
2018-09-17T17:19:10.115Z,95271.26
2018-09-17T17:22:14.736Z,95271.05
2018-09-17T17:25:19.098Z,95277.39
2018-09-17T17:28:23.630Z,95283.73
2018-09-17T17:31:28.065Z,95282.94
2018-09-17T17:34:32.570Z,95283.45
2018-09-17T17:37:37.039Z,95286.28
2018-09-17T17:40:41.824Z,95284.10
2018-09-17T17:43:46.260Z,95287.95
2018-09-17T17:46:50.753Z,95287.68
2018-09-17T17:49:55.072Z,95288.38
2018-09-17T17:52:59.409Z,95285.75
2018-09-17T17:56:03.833Z,95292.45
2018-09-17T17:59:08.371Z,95298.19
2018-09-17T18:02:12.716Z,95294.27
2018-09-17T18:05:17.037Z,95293.04
2018-09-17T18:08:21.525Z,95297.44
2018-09-17T18:11:25.989Z,95297.53
2018-09-17T18:14:30.289Z,95301.72
2018-09-17T18:17:34.675Z,95297.58
2018-09-17T18:20:39.027Z,95308.31
2018-09-17T18:23:43.313Z,95301.53
2018-09-17T18:26:47.808Z,95300.69
2018-09-17T18:29:52.202Z,95305.37
2018-09-17T18:32:56.761Z,95305.87
2018-09-17T18:36:01.032Z,95304.09
2018-09-17T18:39:08.416Z,95310.33
2018-09-17T18:42:12.724Z,95312.22
2018-09-17T18:45:17.162Z,95311.00
2018-09-17T18:48:21.545Z,95318.98
2018-09-17T18:51:25.729Z,95316.61
2018-09-17T18:54:30.072Z,95310.58
2018-09-17T18:57:34.389Z,95309.72
2018-09-17T19:00:38.699Z,95317.12
2018-09-17T19:03:43.148Z,95308.63
2018-09-17T19:06:47.649Z,95304.51
2018-09-17T19:09:52.499Z,95307.49
2018-09-17T19:12:56.898Z,95315.52
2018-09-17T19:16:01.851Z,95310.02
2018-09-17T19:19:06.428Z,95304.02
2018-09-17T19:22:16.362Z,95312.19
2018-09-17T19:25:20.709Z,95309.66
2018-09-17T19:28:30.383Z,95308.78
2018-09-17T19:31:34.807Z,95300.91
2018-09-17T19:34:39.143Z,95296.77
2018-09-17T19:37:48.720Z,95297.16
2018-09-17T19:40:53.309Z,95298.87
2018-09-17T19:43:57.841Z,95298.55
2018-09-17T19:47:02.168Z,95299.61
2018-09-17T19:50:11.867Z,95300.24
2018-09-17T19:53:16.130Z,95309.38
2018-09-17T19:56:20.604Z,95311.80
2018-09-17T19:59:30.100Z,95308.84
2018-09-17T20:02:34.556Z,95306.11
2018-09-17T20:05:44.217Z,95308.72
2018-09-17T20:08:48.805Z,95307.27
2018-09-17T20:11:53.469Z,95305.31
2018-09-17T20:14:58.052Z,95301.97
2018-09-17T20:18:03.514Z,95308.03
2018-09-17T20:21:09.072Z,95299.94
2018-09-17T20:24:14.145Z,95298.73
2018-09-17T20:27:18.977Z,95300.80
2018-09-17T20:30:23.790Z,95302.63
2018-09-17T20:33:33.398Z,95301.51
2018-09-17T20:36:38.656Z,95295.33
2018-09-17T20:39:44.139Z,95293.13
2018-09-17T20:42:49.511Z,95289.25
2018-09-17T20:45:54.484Z,95293.99
2018-09-17T20:48:59.585Z,95293.48
2018-09-17T20:52:04.371Z,95294.56
2018-09-17T20:55:09.354Z,95286.60
2018-09-17T20:58:14.737Z,95285.32
2018-09-17T21:01:19.855Z,95287.87
2018-09-17T21:04:24.713Z,95284.06
2018-09-17T21:07:29.772Z,95282.67
2018-09-17T21:10:34.691Z,95282.03
2018-09-17T21:13:40.109Z,95282.03
2018-09-17T21:16:45.058Z,95279.09
2018-09-17T21:19:49.485Z,95280.42
2018-09-17T21:22:54.315Z,95278.66
2018-09-17T21:25:59.264Z,95276.06
2018-09-17T21:29:04.337Z,95267.38
2018-09-17T21:32:10.013Z,95268.24
2018-09-17T21:35:15.292Z,95259.08
2018-09-17T21:38:20.376Z,95261.81
2018-09-17T21:41:25.291Z,95261.20
2018-09-17T21:44:29.753Z,95252.44
2018-09-17T21:47:34.675Z,95261.28
2018-09-17T21:50:39.148Z,95261.03
2018-09-17T21:53:43.457Z,95256.33
2018-09-17T21:56:47.863Z,95257.12
2018-09-17T21:59:52.288Z,95258.15
2018-09-17T22:02:56.623Z,95253.77
2018-09-17T22:06:00.981Z,95244.47
2018-09-17T22:09:07.348Z,95248.38
2018-09-17T22:12:11.752Z,95251.70
2018-09-17T22:15:16.106Z,95251.34
2018-09-17T22:18:20.525Z,95249.51
2018-09-17T22:21:24.869Z,95247.39
2018-09-17T22:24:29.228Z,95239.38
2018-09-17T22:27:33.554Z,95235.61
2018-09-17T22:30:38.010Z,95236.39
2018-09-17T22:33:42.324Z,95230.14
2018-09-17T22:36:46.654Z,95225.70
2018-09-17T22:39:50.980Z,95230.48
2018-09-17T22:42:55.346Z,95226.66
2018-09-17T22:45:59.682Z,95223.86
2018-09-17T22:49:04.310Z,95220.48
2018-09-17T22:52:08.704Z,95218.14
2018-09-17T22:55:13.078Z,95222.06
2018-09-17T22:58:17.435Z,95222.84
2018-09-17T23:01:21.749Z,95219.33
2018-09-17T23:04:26.117Z,95213.55
2018-09-17T23:07:30.451Z,95210.25
2018-09-17T23:10:34.804Z,95216.16
2018-09-17T23:13:39.192Z,95216.97
2018-09-17T23:16:43.529Z,95219.23
2018-09-17T23:19:47.913Z,95224.58
2018-09-17T23:26:30.673Z,95217.08
2018-09-17T23:29:35.047Z,95206.45
2018-09-17T23:32:39.423Z,95215.30
2018-09-17T23:35:44.079Z,95212.06
2018-09-17T23:38:48.369Z,95212.06
2018-09-17T23:41:52.738Z,95214.30
2018-09-17T23:44:57.165Z,95221.32
2018-09-17T23:48:01.472Z,95216.97
2018-09-17T23:51:05.789Z,95211.35
2018-09-17T23:54:10.085Z,95210.14
2018-09-17T23:57:14.391Z,95212.13
